Startpagina
METAR-TAF:

METAR-TAF

Vliegvelden :

Luchthaven Prins Said Ibrahim

Moroni, Comoren

breedte: 11-32S, lengte: 043-16E, hoogte: 29 m

Actueel weer

Dit bericht is 1 uur en het 14 minuten geleden gemaakt, om 15:00 UTC
Wind 6 kt uit het westzuidwesten
Temperatuur 31°C
Vochtigheid 75%
Druk 1009 hPa
Zicht 10 km of meer
Weinig wolken op 2000 ft

METAR: FMCH 281500Z 25006KT 9999 FEW020 31/26 Q1009 NOSIG

Tijdstip: 19:14 (16:14 UTC)

Verwachting

Dit bericht is 5 uur en het 14 minuten geleden gemaakt, om 11:00 UTC
Verwachting geldig van 28 om 12 UTC tot 29 om 18 UTC
Wind 10 kt uit het noorden
Zicht 10 km of meer
Verspreide wolken op 2300 ft
Wijzigt naar
van 28 om 16 UTC tot 28 om 18 UTC
Wind 3 kt uit het oostzuidoosten
Wijzigt naar
van 29 om 05 UTC tot 29 om 07 UTC
Wind 10 kt uit het westnoordwesten

TAF: FMCH 281100Z 2812/2918 37010KT 9999 SCT023 BECMG 2816/2818 12003KT BECMG 2905/2907 30010KT

Waarnemingen en weersverwachtingen van meer dan 4000 vliegvelden (METAR en TAF).

De beschikbare stations zijn de gele en rode punten op de kaart.

Ga met uw muis naar het station om de naam te zien.

Klik dan om waarnemingen en weersverwachtingen te zien.

kaart wijzigen: klik op de groene knoppen met een zwart kruis om in te zoomen, op de groene knop met een streepje om uit te zoomen of op de groene pijlen voor aangrenzende kaarten.


METAR-TAF: